createdAt,value
2019-05-21T03:02:32.475Z,94.90
2019-05-21T03:05:01.732Z,95.10
2019-05-21T03:07:31.080Z,95.10
2019-05-21T03:10:12.684Z,95.00
2019-05-21T03:12:41.959Z,95.00
2019-05-21T03:15:12.371Z,95.10
2019-05-21T03:17:41.642Z,95.10
2019-05-21T03:20:11.363Z,95.20
2019-05-21T03:22:40.635Z,95.30
2019-05-21T03:25:10.644Z,95.10
2019-05-21T03:27:39.909Z,95.20
2019-05-21T03:30:10.036Z,95.00
2019-05-21T03:32:39.309Z,95.00
2019-05-21T03:35:09.281Z,95.00
2019-05-21T03:37:38.543Z,95.20
2019-05-21T03:40:08.167Z,95.30
2019-05-21T03:42:37.434Z,95.10
2019-05-21T03:45:08.033Z,94.80
2019-05-21T03:47:37.687Z,95.10
2019-05-21T03:50:07.389Z,95.10
2019-05-21T03:52:36.661Z,95.20
2019-05-21T03:55:06.634Z,95.10
2019-05-21T03:57:35.899Z,95.30
2019-05-21T04:00:09.780Z,95.30
2019-05-21T04:02:39.287Z,95.20
2019-05-21T04:05:09.188Z,95.40
2019-05-21T04:07:39.432Z,95.40
2019-05-21T04:10:15.100Z,95.30
2019-05-21T04:12:46.008Z,95.20
2019-05-21T04:15:16.975Z,95.20
2019-05-21T04:17:49.083Z,94.90
2019-05-21T04:20:18.692Z,94.80
2019-05-21T04:22:53.477Z,94.80
2019-05-21T04:25:23.541Z,94.70
2019-05-21T04:27:52.799Z,94.20
2019-05-21T04:30:22.064Z,94.60
2019-05-21T04:32:51.336Z,94.60
2019-05-21T04:35:20.595Z,94.80
2019-05-21T04:37:49.929Z,94.90
2019-05-21T04:40:19.357Z,95.00
2019-05-21T04:42:48.646Z,95.00
2019-05-21T04:45:18.014Z,95.20
2019-05-21T04:47:47.331Z,95.40
2019-05-21T04:50:16.863Z,95.40
2019-05-21T04:52:46.127Z,95.50
2019-05-21T04:55:15.472Z,95.20
2019-05-21T04:57:44.729Z,95.60
2019-05-21T05:00:14.136Z,95.20
2019-05-21T05:02:43.410Z,95.20
2019-05-21T05:05:12.816Z,95.10
2019-05-21T05:07:42.086Z,95.00
2019-05-21T05:10:12.106Z,94.60
2019-05-21T05:12:41.379Z,94.90
2019-05-21T05:15:10.979Z,95.00
2019-05-21T05:17:40.427Z,95.10
2019-05-21T05:20:10.047Z,95.00
2019-05-21T05:22:39.326Z,95.20
2019-05-21T05:25:08.867Z,95.30
2019-05-21T05:27:38.143Z,94.80
2019-05-21T05:30:08.143Z,95.00
2019-05-21T05:32:37.410Z,94.90
2019-05-21T05:35:06.919Z,94.80
2019-05-21T05:37:43.893Z,95.00
2019-05-21T05:40:08.936Z,94.60
2019-05-21T05:42:38.216Z,94.40
2019-05-21T05:45:08.751Z,94.20
2019-05-21T05:47:38.087Z,94.10
2019-05-21T05:50:12.322Z,94.30
2019-05-21T05:52:41.580Z,94.10
2019-05-21T05:55:11.341Z,94.20
2019-05-21T05:57:40.807Z,93.90
2019-05-21T06:00:12.659Z,93.60
2019-05-21T06:02:41.916Z,93.50
2019-05-21T06:05:12.595Z,93.60
2019-05-21T06:07:41.859Z,93.10
2019-05-21T06:10:11.564Z,93.50
2019-05-21T06:12:40.818Z,93.00
2019-05-21T06:15:10.262Z,93.20
2019-05-21T06:17:39.522Z,93.30
2019-05-21T06:20:09.227Z,93.60
2019-05-21T06:22:38.491Z,93.70
2019-05-21T06:25:10.031Z,93.70
2019-05-21T06:27:39.276Z,94.10
2019-05-21T06:30:09.619Z,94.40
2019-05-21T06:32:39.127Z,94.50
2019-05-21T06:35:08.568Z,94.40
2019-05-21T06:37:38.176Z,94.20
2019-05-21T06:40:07.751Z,94.30
2019-05-21T06:42:37.020Z,94.10
2019-05-21T06:45:08.716Z,94.00
2019-05-21T06:47:37.985Z,94.00
2019-05-21T06:50:07.719Z,93.90
2019-05-21T06:52:37.057Z,94.10
2019-05-21T06:55:06.659Z,94.20
2019-05-21T06:57:35.920Z,94.00
2019-05-21T07:00:08.923Z,94.00
2019-05-21T07:02:38.195Z,93.70
2019-05-21T07:05:07.713Z,93.80
2019-05-21T07:07:36.971Z,93.60
2019-05-21T07:10:07.484Z,94.00
2019-05-21T07:12:37.068Z,93.20
2019-05-21T07:15:09.889Z,93.10
2019-05-21T07:17:40.227Z,93.30
2019-05-21T07:20:10.123Z,93.10
2019-05-21T07:22:39.494Z,93.40
2019-05-21T07:25:09.099Z,93.20
2019-05-21T07:27:38.362Z,93.20
2019-05-21T07:30:08.668Z,93.30
2019-05-21T07:32:37.965Z,92.80
2019-05-21T07:35:07.846Z,93.20
2019-05-21T07:37:37.343Z,93.00
2019-05-21T07:40:07.990Z,92.90
2019-05-21T07:42:37.262Z,92.70
2019-05-21T07:45:09.643Z,92.60
2019-05-21T07:47:38.907Z,92.80
2019-05-21T07:50:08.424Z,92.70
2019-05-21T07:52:37.679Z,92.50
2019-05-21T07:55:07.187Z,92.30
2019-05-21T07:57:36.490Z,92.40
2019-05-21T08:00:07.485Z,92.40
2019-05-21T08:02:36.748Z,92.50
2019-05-21T08:05:06.525Z,91.70
2019-05-21T08:07:35.834Z,91.90
2019-05-21T08:10:08.683Z,91.30
2019-05-21T08:12:39.894Z,91.40
2019-05-21T08:15:09.683Z,91.10
2019-05-21T08:17:38.948Z,91.20
2019-05-21T08:20:10.905Z,90.70
2019-05-21T08:22:40.471Z,91.10
2019-05-21T08:25:14.595Z,90.70
2019-05-21T08:27:41.775Z,90.90
2019-05-21T08:30:11.916Z,91.00
2019-05-21T08:32:41.172Z,91.00
2019-05-21T08:35:10.690Z,91.20
2019-05-21T08:37:40.012Z,91.20
2019-05-21T08:40:10.139Z,91.50
2019-05-21T08:42:39.475Z,91.40
2019-05-21T08:45:09.685Z,91.00
2019-05-21T08:47:38.946Z,91.00
2019-05-21T08:50:09.131Z,90.80
2019-05-21T08:52:38.396Z,91.30
2019-05-21T08:55:08.814Z,91.30
2019-05-21T08:57:38.076Z,91.70
2019-05-21T09:00:14.599Z,91.60
2019-05-21T09:02:43.859Z,92.20
2019-05-21T09:05:13.572Z,92.20
2019-05-21T09:07:42.980Z,91.90
2019-05-21T09:10:12.887Z,92.10
2019-05-21T09:12:42.157Z,92.00
2019-05-21T09:15:11.851Z,91.70
2019-05-21T09:17:41.159Z,91.40
2019-05-21T09:20:11.621Z,91.40
2019-05-21T09:22:40.917Z,91.80
2019-05-21T09:25:10.615Z,91.10
2019-05-21T09:27:40.062Z,91.10
2019-05-21T09:30:10.368Z,90.70
2019-05-21T09:32:40.051Z,90.80
2019-05-21T09:35:11.529Z,90.70
2019-05-21T09:37:41.111Z,90.20
2019-05-21T09:40:11.991Z,90.60
2019-05-21T09:42:44.926Z,90.10
2019-05-21T09:45:12.957Z,89.60
2019-05-21T09:47:42.431Z,90.10
2019-05-21T09:50:12.238Z,90.60
2019-05-21T09:52:41.542Z,90.10
2019-05-21T09:55:12.275Z,89.80
2019-05-21T09:57:52.135Z,88.30
2019-05-21T10:00:27.132Z,88.20
2019-05-21T10:02:56.387Z,89.70
2019-05-21T10:05:25.654Z,89.80
2019-05-21T10:07:54.927Z,90.50
2019-05-21T10:10:24.194Z,90.10
2019-05-21T10:12:53.461Z,90.40
2019-05-21T10:15:22.975Z,90.50
2019-05-21T10:17:52.274Z,90.50
2019-05-21T10:20:21.523Z,90.30
2019-05-21T10:22:50.797Z,90.50
2019-05-21T10:25:20.059Z,90.60
2019-05-21T10:27:49.327Z,90.50
2019-05-21T10:30:18.927Z,90.10
2019-05-21T10:32:48.200Z,90.10
2019-05-21T10:35:17.783Z,90.70
2019-05-21T10:37:54.822Z,90.10
2019-05-21T10:40:18.088Z,89.90
2019-05-21T10:42:47.352Z,89.80
2019-05-21T10:45:17.039Z,89.50
2019-05-21T10:47:46.313Z,88.30
2019-05-21T10:50:16.015Z,87.30
2019-05-21T10:52:45.279Z,87.60
2019-05-21T10:55:16.332Z,87.30
2019-05-21T10:57:45.762Z,87.00
2019-05-21T11:00:23.380Z,87.30
2019-05-21T11:03:00.472Z,87.60
2019-05-21T11:05:31.380Z,87.80
2019-05-21T11:08:22.114Z,88.90
2019-05-21T11:10:31.945Z,87.50
2019-05-21T11:13:01.214Z,86.80
2019-05-21T11:15:30.809Z,87.00
2019-05-21T11:18:10.571Z,86.90
2019-05-21T11:20:31.039Z,87.80
2019-05-21T11:23:00.337Z,88.00
2019-05-21T11:25:29.578Z,87.20
2019-05-21T11:27:58.834Z,87.90
2019-05-21T11:30:28.150Z,87.10
2019-05-21T11:32:57.735Z,86.10
2019-05-21T11:35:27.343Z,86.60
2019-05-21T11:37:56.851Z,86.10
2019-05-21T11:40:26.551Z,87.30
2019-05-21T11:42:55.819Z,87.00
2019-05-21T11:45:32.364Z,85.80
2019-05-21T11:47:56.190Z,86.10
2019-05-21T11:50:25.463Z,86.40
2019-05-21T11:52:54.757Z,86.70
2019-05-21T11:55:24.088Z,86.30
2019-05-21T11:57:53.422Z,84.80
2019-05-21T12:00:24.662Z,84.00
2019-05-21T12:02:54.101Z,84.00
2019-05-21T12:05:23.990Z,83.60
2019-05-21T12:07:53.613Z,83.70
2019-05-21T12:10:23.377Z,83.70
2019-05-21T12:12:52.684Z,83.60
2019-05-21T12:15:23.485Z,83.40
2019-05-21T12:17:52.866Z,83.10
2019-05-21T12:20:41.476Z,84.50
2019-05-21T12:23:11.009Z,84.20
2019-05-21T12:25:40.271Z,84.40
2019-05-21T12:28:11.231Z,85.40
2019-05-21T12:30:40.660Z,83.90
2019-05-21T12:33:09.982Z,83.70
2019-05-21T12:35:39.668Z,84.50
2019-05-21T12:38:08.927Z,83.20
2019-05-21T12:40:38.473Z,82.70
2019-05-21T12:43:07.802Z,83.40
2019-05-21T12:45:37.071Z,84.60
2019-05-21T12:48:06.339Z,85.00
2019-05-21T12:50:35.604Z,84.30
2019-05-21T12:53:04.969Z,84.30
2019-05-21T12:55:34.279Z,84.00
2019-05-21T12:58:03.548Z,84.30
2019-05-21T13:00:35.339Z,84.10
2019-05-21T13:03:04.620Z,83.50
2019-05-21T13:05:34.151Z,83.10
2019-05-21T13:08:03.434Z,83.10
2019-05-21T13:10:32.935Z,83.00
2019-05-21T13:13:02.207Z,83.50
2019-05-21T13:15:31.472Z,83.80
2019-05-21T13:18:00.764Z,83.60
2019-05-21T13:20:30.271Z,83.70
2019-05-21T13:22:59.777Z,83.80
2019-05-21T13:25:29.802Z,81.90
2019-05-21T13:27:59.099Z,81.60
2019-05-21T13:30:28.360Z,81.50
2019-05-21T13:32:58.593Z,82.20
2019-05-21T13:35:27.956Z,81.50
2019-05-21T13:37:57.388Z,81.90
2019-05-21T13:40:27.864Z,81.60
2019-05-21T13:42:57.140Z,81.80
2019-05-21T13:45:26.411Z,80.90
2019-05-21T13:47:55.854Z,81.40
2019-05-21T13:50:25.123Z,80.40
2019-05-21T13:52:54.395Z,80.40
2019-05-21T13:55:23.658Z,80.80
2019-05-21T13:57:52.948Z,80.20
2019-05-21T14:00:41.111Z,80.50
2019-05-21T14:03:10.454Z,80.50
2019-05-21T14:05:39.712Z,81.30
2019-05-21T14:08:09.327Z,80.40
2019-05-21T14:10:39.149Z,80.00
2019-05-21T14:13:08.607Z,79.50
2019-05-21T14:15:37.919Z,79.70
2019-05-21T14:18:07.191Z,80.90
2019-05-21T14:20:36.521Z,80.40
2019-05-21T14:23:06.163Z,80.50
2019-05-21T14:25:35.499Z,79.30
2019-05-21T14:28:04.794Z,81.20
2019-05-21T14:30:34.072Z,80.00
2019-05-21T14:33:03.332Z,80.10
2019-05-21T14:35:32.675Z,80.20
2019-05-21T14:38:01.932Z,80.60
2019-05-21T14:40:32.820Z,81.10
2019-05-21T14:43:02.281Z,81.40
2019-05-21T14:45:34.287Z,81.60
2019-05-21T14:48:03.047Z,80.90
2019-05-21T14:50:32.308Z,81.00
2019-05-21T14:53:01.597Z,80.80
2019-05-21T14:55:30.867Z,80.80
2019-05-21T14:58:00.380Z,81.60
2019-05-21T15:00:31.939Z,81.70
2019-05-21T15:03:01.203Z,81.90
2019-05-21T15:05:30.538Z,82.10
2019-05-21T15:08:00.077Z,82.60
2019-05-21T15:10:29.343Z,83.00
2019-05-21T15:12:58.619Z,83.00
2019-05-21T15:15:28.923Z,83.70
2019-05-21T15:17:58.182Z,84.00
2019-05-21T15:20:32.631Z,83.80
2019-05-21T15:23:01.915Z,83.90
2019-05-21T15:25:31.195Z,84.20
2019-05-21T15:28:00.535Z,84.30
2019-05-21T15:30:30.107Z,84.30
2019-05-21T15:32:59.623Z,84.40
2019-05-21T15:35:29.228Z,84.50
2019-05-21T15:37:58.590Z,84.10
2019-05-21T15:40:27.923Z,83.60
2019-05-21T15:42:57.270Z,83.40
2019-05-21T15:45:26.603Z,82.90
2019-05-21T15:47:56.146Z,83.20
2019-05-21T15:50:25.649Z,83.50
2019-05-21T15:52:55.992Z,84.60
2019-05-21T15:55:25.257Z,84.00
2019-05-21T15:57:54.533Z,83.50
2019-05-21T16:00:24.152Z,83.90
2019-05-21T16:02:53.418Z,84.20
2019-05-21T16:05:22.992Z,84.60
2019-05-21T16:07:53.902Z,84.40
2019-05-21T16:10:23.175Z,84.00
2019-05-21T16:12:54.210Z,83.30
2019-05-21T16:15:23.487Z,83.80
2019-05-21T16:18:00.995Z,83.10
2019-05-21T16:20:31.441Z,83.40
2019-05-21T16:23:00.708Z,84.00
2019-05-21T16:25:29.975Z,85.10
2019-05-21T16:27:59.515Z,84.50
2019-05-21T16:30:28.853Z,84.40
2019-05-21T16:32:58.137Z,84.10
2019-05-21T16:35:28.038Z,85.10
2019-05-21T16:37:57.519Z,84.70
2019-05-21T16:40:26.792Z,84.50
2019-05-21T16:42:56.345Z,84.50
2019-05-21T16:45:25.960Z,84.80
2019-05-21T16:47:55.425Z,84.70
2019-05-21T16:50:25.751Z,85.00
2019-05-21T16:52:55.608Z,84.30
2019-05-21T16:55:24.934Z,83.70
2019-05-21T16:57:56.340Z,84.00
2019-05-21T17:00:26.974Z,83.60
2019-05-21T17:02:56.247Z,84.20
2019-05-21T17:05:25.514Z,83.90
2019-05-21T17:07:54.791Z,83.90
2019-05-21T17:10:24.495Z,83.80
2019-05-21T17:12:53.779Z,83.80
2019-05-21T17:15:23.211Z,84.20
2019-05-21T17:17:52.660Z,84.10
2019-05-21T17:20:21.920Z,84.60
2019-05-21T17:22:51.369Z,84.30
2019-05-21T17:25:20.811Z,84.10
2019-05-21T17:27:50.111Z,84.60
2019-05-21T17:30:19.941Z,84.70
2019-05-21T17:32:49.221Z,84.80
2019-05-21T17:35:18.489Z,84.60
2019-05-21T17:37:48.971Z,84.60
2019-05-21T17:40:18.414Z,84.40
2019-05-21T17:42:49.470Z,84.70
2019-05-21T17:45:18.742Z,85.60
2019-05-21T17:47:48.015Z,84.60
2019-05-21T17:50:18.494Z,84.50
2019-05-21T17:52:48.055Z,84.90
2019-05-21T17:55:17.563Z,83.70
2019-05-21T17:57:47.579Z,84.70
2019-05-21T18:00:19.131Z,84.80
2019-05-21T18:02:49.415Z,85.60
2019-05-21T18:05:19.790Z,85.40
2019-05-21T18:07:49.508Z,85.60
2019-05-21T18:10:19.107Z,85.40
2019-05-21T18:12:49.187Z,85.50
2019-05-21T18:15:18.795Z,86.00
2019-05-21T18:17:49.280Z,85.80
2019-05-21T18:20:20.458Z,86.20
2019-05-21T18:22:50.538Z,86.40
2019-05-21T18:25:19.875Z,86.40
2019-05-21T18:27:49.547Z,86.60
2019-05-21T18:30:18.959Z,86.50
2019-05-21T18:32:49.054Z,86.40
2019-05-21T18:35:18.419Z,86.60
2019-05-21T18:37:47.694Z,87.00
2019-05-21T18:40:17.695Z,87.00
2019-05-21T18:42:47.135Z,87.00
2019-05-21T18:45:16.812Z,86.80
2019-05-21T18:47:46.074Z,86.10
2019-05-21T18:50:16.791Z,87.00
2019-05-21T18:52:49.479Z,87.10
2019-05-21T18:55:18.263Z,87.30
2019-05-21T18:57:47.824Z,87.30
2019-05-21T19:00:17.450Z,87.60
2019-05-21T19:02:47.057Z,87.80
2019-05-21T19:05:16.563Z,87.60
2019-05-21T19:07:47.287Z,87.30
2019-05-21T19:10:16.919Z,87.80
2019-05-21T19:12:46.703Z,87.70
2019-05-21T19:15:16.910Z,88.10
2019-05-21T19:17:46.194Z,88.10
2019-05-21T19:20:16.003Z,88.00
2019-05-21T19:22:45.362Z,89.30
2019-05-21T19:25:15.073Z,88.40
2019-05-21T19:27:44.320Z,88.80
2019-05-21T19:30:13.999Z,88.70
2019-05-21T19:32:43.292Z,88.90
2019-05-21T19:35:12.814Z,89.10
2019-05-21T19:37:42.413Z,89.40
2019-05-21T19:40:13.327Z,89.10
2019-05-21T19:42:54.382Z,89.20
2019-05-21T19:45:14.206Z,89.40
2019-05-21T19:47:43.519Z,89.50
2019-05-21T19:50:13.443Z,89.50
2019-05-21T19:52:42.715Z,89.30
2019-05-21T19:55:12.437Z,89.40
2019-05-21T19:57:42.215Z,89.30
2019-05-21T20:00:12.143Z,89.50
2019-05-21T20:02:42.367Z,89.60
2019-05-21T20:05:12.191Z,89.70
2019-05-21T20:07:42.240Z,89.70
2019-05-21T20:10:11.975Z,89.60
2019-05-21T20:12:41.556Z,89.70
2019-05-21T20:15:11.214Z,89.60
2019-05-21T20:17:43.017Z,89.60
2019-05-21T20:20:14.699Z,89.70
2019-05-21T20:22:45.251Z,89.70
2019-05-21T20:25:15.143Z,89.60
2019-05-21T20:27:44.930Z,89.60
2019-05-21T20:30:16.474Z,89.40
2019-05-21T20:32:46.578Z,89.50
2019-05-21T20:35:18.089Z,89.60
2019-05-21T20:37:48.987Z,89.80
2019-05-21T20:40:18.739Z,89.90
2019-05-21T20:42:48.244Z,90.10
2019-05-21T20:45:20.752Z,90.00
2019-05-21T20:47:51.193Z,89.90
2019-05-21T20:50:21.511Z,89.70
2019-05-21T20:52:51.784Z,89.90
2019-05-21T20:55:21.052Z,89.90
2019-05-21T20:57:50.608Z,89.70
2019-05-21T21:00:23.957Z,90.00
2019-05-21T21:02:53.222Z,90.00
2019-05-21T21:05:22.840Z,89.80
2019-05-21T21:07:52.179Z,89.80
2019-05-21T21:10:22.027Z,89.70
2019-05-21T21:12:53.014Z,90.00
2019-05-21T21:15:23.132Z,89.90
2019-05-21T21:17:52.640Z,89.90
2019-05-21T21:20:22.002Z,89.90
2019-05-21T21:22:51.306Z,90.00
2019-05-21T21:25:21.039Z,89.70
2019-05-21T21:27:50.812Z,89.70
2019-05-21T21:30:20.602Z,90.00
2019-05-21T21:32:50.334Z,90.50
2019-05-21T21:35:19.911Z,90.20
2019-05-21T21:37:49.355Z,90.30
2019-05-21T21:40:20.337Z,90.20
2019-05-21T21:42:50.722Z,90.40
2019-05-21T21:45:20.496Z,90.10
2019-05-21T21:47:50.043Z,90.60
2019-05-21T21:50:19.686Z,90.00
2019-05-21T21:52:49.137Z,90.10
2019-05-21T21:55:18.458Z,90.00
2019-05-21T21:57:47.723Z,89.60
2019-05-21T22:00:47.648Z,89.60
2019-05-21T22:03:18.028Z,89.40
2019-05-21T22:05:47.784Z,89.80
2019-05-21T22:08:17.733Z,89.70
2019-05-21T22:10:47.011Z,89.70
2019-05-21T22:13:16.715Z,89.80
2019-05-21T22:15:46.431Z,90.20
2019-05-21T22:18:15.874Z,90.30
2019-05-21T22:20:45.166Z,90.40
2019-05-21T22:23:15.075Z,90.50
2019-05-21T22:25:45.683Z,91.00
2019-05-21T22:28:16.839Z,90.50
2019-05-21T22:30:46.352Z,90.60
2019-05-21T22:33:16.998Z,90.40
2019-05-21T22:35:46.276Z,90.40
2019-05-21T22:38:15.606Z,90.30
2019-05-21T22:40:45.055Z,90.30
2019-05-21T22:43:14.613Z,90.30
2019-05-21T22:45:44.095Z,90.30
2019-05-21T22:48:13.508Z,90.20
2019-05-21T22:50:43.199Z,90.20
2019-05-21T22:53:12.546Z,90.20
2019-05-21T22:55:42.106Z,90.20
2019-05-21T22:58:11.929Z,90.40
2019-05-21T23:00:41.846Z,90.20
2019-05-21T23:03:11.175Z,90.10
2019-05-21T23:05:40.451Z,90.20
2019-05-21T23:08:10.072Z,90.30
2019-05-21T23:10:39.510Z,90.30
2019-05-21T23:13:08.798Z,90.40
2019-05-21T23:15:38.715Z,90.50
2019-05-21T23:18:22.140Z,90.40
2019-05-21T23:20:55.671Z,90.40
2019-05-21T23:23:26.919Z,90.50
2019-05-21T23:25:58.111Z,90.50
2019-05-21T23:28:28.100Z,90.40
2019-05-21T23:30:58.595Z,90.50
2019-05-21T23:33:28.727Z,90.50
2019-05-21T23:35:58.262Z,90.40
2019-05-21T23:38:27.850Z,90.30
2019-05-21T23:40:58.071Z,90.40
2019-05-21T23:43:27.923Z,90.20
2019-05-21T23:45:57.455Z,90.10
2019-05-21T23:48:27.686Z,90.20
2019-05-21T23:50:57.734Z,90.00
2019-05-21T23:53:27.547Z,90.10
2019-05-21T23:55:57.266Z,90.20
2019-05-21T23:58:26.615Z,90.20
